createdAt,value
2022-08-03T09:36:37.546Z,32.05
2022-08-03T09:39:10.906Z,32.56
2022-08-03T09:41:44.581Z,31.55
2022-08-03T09:44:16.229Z,31.63
2022-08-03T09:46:56.392Z,31.40
2022-08-03T09:49:25.482Z,30.88
2022-08-03T09:52:32.933Z,30.66
2022-08-03T09:54:43.569Z,31.54
2022-08-03T09:57:24.761Z,30.23
2022-08-03T10:00:02.954Z,30.82
2022-08-03T10:02:44.698Z,30.29
2022-08-03T10:05:17.533Z,32.11
2022-08-03T10:07:50.618Z,30.59
2022-08-03T10:10:30.496Z,29.76
2022-08-03T10:13:00.573Z,30.18
2022-08-03T10:16:21.662Z,31.52
2022-08-03T10:18:17.034Z,30.17
2022-08-03T10:20:50.148Z,29.24
2022-08-03T10:23:19.008Z,29.84
2022-08-03T10:25:49.621Z,29.91
2022-08-03T10:28:19.813Z,30.75
2022-08-03T10:30:53.624Z,29.96
2022-08-03T10:33:49.891Z,30.01
2022-08-03T10:36:14.538Z,29.95
2022-08-03T10:38:52.674Z,30.12
2022-08-03T10:41:22.370Z,29.73
2022-08-03T10:44:13.372Z,29.82
2022-08-03T10:46:45.235Z,29.53
2022-08-03T10:49:34.501Z,29.64
2022-08-03T10:52:12.932Z,30.58
2022-08-03T10:55:11.266Z,31.12
2022-08-03T10:57:46.432Z,30.96
2022-08-03T11:00:27.365Z,30.67
2022-08-03T11:03:07.220Z,29.75
2022-08-03T11:05:40.620Z,29.97
2022-08-03T11:08:24.746Z,30.44
2022-08-03T11:11:14.223Z,30.27
2022-08-03T11:14:00.769Z,30.52
2022-08-03T11:16:29.532Z,30.67
2022-08-03T11:19:07.808Z,30.15
2022-08-03T11:21:50.953Z,31.25
2022-08-03T11:24:36.945Z,30.55
2022-08-03T11:27:20.821Z,30.39
2022-08-03T11:29:55.146Z,30.49
2022-08-03T11:32:38.349Z,29.94
2022-08-03T11:35:17.065Z,30.35
2022-08-03T11:38:08.775Z,30.45
2022-08-03T11:40:39.169Z,29.87
2022-08-03T11:43:25.734Z,29.94
2022-08-03T11:46:06.506Z,29.15
2022-08-03T11:48:34.633Z,28.97
2022-08-03T11:51:06.976Z,29.38
2022-08-03T11:53:42.127Z,29.76
2022-08-03T11:56:12.780Z,29.42
2022-08-03T11:59:17.209Z,28.44
2022-08-03T12:01:42.498Z,28.13
2022-08-03T12:04:11.968Z,28.67
2022-08-03T12:06:55.357Z,28.89
2022-08-03T12:09:23.537Z,28.59
2022-08-03T12:12:00.654Z,28.40
2022-08-03T12:14:48.539Z,27.92
2022-08-03T12:17:18.700Z,27.56
2022-08-03T12:19:47.377Z,27.53
2022-08-03T12:22:16.935Z,27.53
2022-08-03T12:24:46.763Z,27.61
2022-08-03T12:27:25.513Z,27.77
2022-08-03T12:29:57.300Z,29.39
2022-08-03T12:32:28.304Z,28.79
2022-08-03T12:35:01.072Z,28.82
2022-08-03T12:37:29.575Z,28.48
2022-08-03T12:40:07.731Z,28.29
2022-08-03T12:42:39.719Z,28.05
2022-08-03T12:45:24.490Z,27.81
2022-08-03T12:47:55.871Z,27.44
2022-08-03T12:50:43.758Z,27.48
2022-08-03T12:53:11.546Z,27.86
2022-08-03T12:55:57.943Z,27.49
2022-08-03T12:58:40.072Z,27.40
2022-08-03T13:01:10.499Z,27.85
2022-08-03T13:03:50.274Z,27.76
2022-08-03T13:06:25.238Z,28.34
2022-08-03T13:09:06.662Z,29.12
2022-08-03T13:11:57.258Z,28.67
2022-08-03T13:14:23.725Z,28.39
2022-08-03T13:16:51.425Z,28.19
2022-08-03T13:19:19.108Z,28.02
2022-08-03T13:22:03.721Z,27.80
2022-08-03T13:24:33.133Z,28.71
2022-08-03T13:27:58.851Z,28.09
2022-08-03T13:29:49.084Z,28.53
2022-08-03T13:32:17.046Z,27.99
2022-08-03T13:34:44.572Z,27.63
2022-08-03T13:37:12.632Z,28.79
2022-08-03T13:39:57.762Z,27.96
2022-08-03T13:42:29.684Z,27.37
2022-08-03T13:44:57.770Z,27.46
2022-08-03T13:47:25.482Z,27.71
2022-08-03T13:49:54.258Z,27.99
2022-08-03T13:52:32.158Z,27.58
2022-08-03T13:55:00.396Z,27.99
2022-08-03T13:58:04.185Z,27.64
2022-08-03T14:00:27.025Z,27.87
2022-08-03T14:03:09.578Z,28.18
2022-08-03T14:05:42.962Z,27.74
2022-08-03T14:08:11.429Z,28.08
2022-08-03T14:10:43.181Z,28.52
2022-08-03T14:13:12.367Z,29.09
2022-08-03T14:15:40.526Z,29.09
2022-08-03T14:18:12.780Z,28.46
2022-08-03T14:20:49.102Z,28.70
2022-08-03T14:23:22.143Z,28.90
2022-08-03T14:25:51.583Z,28.83
2022-08-03T14:28:24.824Z,28.68
2022-08-03T14:30:54.791Z,28.87
2022-08-03T14:33:22.923Z,29.45
2022-08-03T14:35:52.040Z,29.20
2022-08-03T14:38:20.143Z,29.84
2022-08-03T14:40:48.633Z,29.79
2022-08-03T14:43:18.234Z,30.46
2022-08-03T14:45:46.295Z,29.82
2022-08-03T14:50:31.790Z,30.05
2022-08-03T14:51:04.461Z,28.95
2022-08-03T14:53:32.589Z,29.49
2022-08-03T14:56:00.576Z,29.79
2022-08-03T14:58:28.828Z,29.14
2022-08-03T15:00:56.857Z,29.28
2022-08-03T15:03:25.580Z,29.49
2022-08-03T15:05:55.461Z,29.74
2022-08-03T15:08:24.827Z,29.63
2022-08-03T15:10:54.517Z,29.12
2022-08-03T15:13:22.829Z,28.81
2022-08-03T15:15:51.923Z,29.58
2022-08-03T15:18:20.661Z,29.45
2022-08-03T15:20:50.510Z,29.26
2022-08-03T15:23:18.776Z,29.02
2022-08-03T15:26:31.864Z,29.64
2022-08-03T15:28:37.473Z,29.42
2022-08-03T15:31:06.784Z,29.37
2022-08-03T15:33:35.258Z,29.41
2022-08-03T15:36:04.246Z,29.48
2022-08-03T15:38:32.151Z,29.66
2022-08-03T15:41:00.417Z,29.88
2022-08-03T15:43:28.381Z,29.59
2022-08-03T15:46:27.665Z,29.37
2022-08-03T15:48:44.150Z,28.92
2022-08-03T15:51:12.448Z,28.96
2022-08-03T15:53:40.399Z,29.21
2022-08-03T15:56:14.240Z,29.02
2022-08-03T15:59:10.751Z,29.33
2022-08-03T16:01:31.774Z,29.42
2022-08-03T16:03:59.855Z,29.31
2022-08-03T16:06:29.585Z,28.75
2022-08-03T16:09:24.069Z,29.07
2022-08-03T16:11:55.651Z,28.96
2022-08-03T16:14:32.085Z,29.37
2022-08-03T16:17:01.281Z,29.74
2022-08-03T16:19:29.131Z,29.58
2022-08-03T16:21:57.092Z,30.13
2022-08-03T16:24:27.710Z,29.85
2022-08-03T16:26:56.850Z,29.62
2022-08-03T16:29:24.859Z,29.90
2022-08-03T16:31:53.006Z,29.98
2022-08-03T16:34:21.350Z,30.34
2022-08-03T16:36:49.343Z,30.09
2022-08-03T16:39:17.215Z,30.22
2022-08-03T16:41:53.621Z,30.37
2022-08-03T16:44:30.409Z,29.69
2022-08-03T16:46:59.766Z,30.18
2022-08-03T16:49:55.582Z,30.77
2022-08-03T16:52:18.236Z,30.70
2022-08-03T16:54:50.595Z,30.63
2022-08-03T16:57:55.787Z,30.72
2022-08-03T17:00:32.943Z,30.61
2022-08-03T17:03:19.074Z,30.30
2022-08-03T17:05:50.145Z,30.42
2022-08-03T17:08:19.020Z,31.12
2022-08-03T17:10:56.048Z,31.21
2022-08-03T17:13:38.963Z,31.12
2022-08-03T17:16:09.624Z,31.00
2022-08-03T17:18:49.830Z,30.99
2022-08-03T17:21:23.049Z,31.82
2022-08-03T17:24:19.708Z,32.21
2022-08-03T17:26:51.025Z,32.20
2022-08-03T17:29:23.212Z,32.73
2022-08-03T17:31:53.598Z,32.34
2022-08-03T17:34:26.537Z,32.75
2022-08-03T17:37:04.483Z,33.39
2022-08-03T17:39:56.122Z,32.51
2022-08-03T17:42:30.769Z,32.56
2022-08-03T17:45:02.065Z,32.31
2022-08-03T17:47:42.443Z,32.55
2022-08-03T17:50:25.276Z,33.55
2022-08-03T17:53:06.735Z,32.59
2022-08-03T17:55:55.334Z,32.18
2022-08-03T17:58:53.566Z,32.23
2022-08-03T18:02:06.122Z,33.10
2022-08-03T18:04:42.386Z,32.50
2022-08-03T18:07:15.998Z,32.27
2022-08-03T18:10:03.731Z,32.13
2022-08-03T18:12:54.704Z,32.29
2022-08-03T18:15:43.914Z,32.36
2022-08-03T18:18:14.225Z,32.80
2022-08-03T18:20:45.543Z,32.63
2022-08-03T18:23:25.318Z,32.92
2022-08-03T18:26:10.785Z,33.08
2022-08-03T18:28:40.765Z,33.66
2022-08-03T18:31:12.651Z,33.54
2022-08-03T18:34:17.624Z,33.80
2022-08-03T18:36:37.891Z,33.63
2022-08-03T18:39:06.845Z,34.06
2022-08-03T18:41:36.633Z,33.72
2022-08-03T18:44:07.081Z,34.26
2022-08-03T18:46:42.349Z,34.31
2022-08-03T18:49:11.390Z,34.80
2022-08-03T18:51:43.260Z,34.59
2022-08-03T18:57:30.185Z,34.99
2022-08-03T19:00:10.421Z,35.71
2022-08-03T19:03:10.160Z,35.58
2022-08-03T19:06:02.638Z,35.01
2022-08-03T19:08:55.886Z,35.01
2022-08-03T19:12:11.269Z,35.57
2022-08-03T19:14:28.660Z,35.16
2022-08-03T19:17:05.867Z,35.89
2022-08-03T19:19:44.516Z,36.02
2022-08-03T19:22:15.824Z,36.34
2022-08-03T19:24:46.361Z,37.29
2022-08-03T19:27:15.972Z,37.64
2022-08-03T19:29:58.811Z,37.63
2022-08-03T19:32:30.416Z,37.90
2022-08-03T19:35:00.613Z,37.57
2022-08-03T19:37:38.217Z,37.50
2022-08-03T19:40:12.254Z,36.90
2022-08-03T19:42:46.364Z,36.95
2022-08-03T19:45:21.318Z,36.33
2022-08-03T19:47:53.023Z,37.42
2022-08-03T19:50:21.294Z,37.71
2022-08-03T19:52:50.076Z,37.14
2022-08-03T19:55:18.668Z,38.35
2022-08-03T19:57:49.355Z,39.69
2022-08-03T20:00:26.411Z,40.29
2022-08-03T20:02:54.977Z,40.75
2022-08-03T20:05:22.770Z,40.18
2022-08-03T20:07:51.047Z,39.37
2022-08-03T20:10:20.348Z,39.14
2022-08-03T20:12:49.769Z,39.26
2022-08-03T20:15:30.950Z,41.54
2022-08-03T20:18:00.307Z,41.81
2022-08-03T20:20:32.736Z,40.39
2022-08-03T20:23:07.225Z,39.66
2022-08-03T20:25:48.567Z,39.91
2022-08-03T20:31:36.149Z,40.02
2022-08-03T20:34:05.454Z,39.20
2022-08-03T20:36:33.232Z,39.38
2022-08-03T20:39:00.987Z,39.54
2022-08-03T20:41:30.586Z,39.39
2022-08-03T20:44:00.936Z,40.04
2022-08-03T20:46:37.227Z,40.12
2022-08-03T20:49:19.213Z,40.27
2022-08-03T20:51:53.106Z,40.03
2022-08-03T20:54:31.057Z,40.36
2022-08-03T20:57:04.345Z,40.59
2022-08-03T20:59:50.447Z,41.15
2022-08-03T21:02:30.054Z,40.44
2022-08-03T21:05:03.219Z,39.70
2022-08-03T21:08:06.125Z,40.49
2022-08-03T21:10:38.600Z,40.13
2022-08-03T21:13:10.024Z,34.60
2022-08-03T21:13:14.083Z,40.69
2022-08-03T21:13:39.306Z,40.12
2022-08-03T21:16:14.661Z,40.29
2022-08-03T21:18:45.860Z,40.23
2022-08-03T21:21:16.089Z,40.34
2022-08-03T21:23:48.847Z,40.36
2022-08-03T21:26:22.304Z,40.88
2022-08-03T21:28:52.363Z,41.05
2022-08-03T21:31:25.378Z,40.52
2022-08-03T21:34:12.157Z,41.35
2022-08-03T21:36:39.849Z,40.99
2022-08-03T21:39:09.668Z,40.74
2022-08-03T21:41:40.858Z,40.79
2022-08-03T21:44:08.527Z,41.34
2022-08-03T21:46:39.147Z,40.59
2022-08-03T21:50:05.215Z,41.56
2022-08-03T21:52:04.725Z,41.06
2022-08-03T21:54:36.295Z,40.89
2022-08-03T21:57:05.978Z,41.55
2022-08-03T21:59:38.077Z,41.27
2022-08-03T22:02:20.040Z,41.57
2022-08-03T22:04:56.131Z,41.26
2022-08-03T22:07:28.962Z,40.90
2022-08-03T22:09:57.351Z,41.51
2022-08-03T22:12:27.335Z,41.48
2022-08-03T22:15:01.133Z,41.67
2022-08-03T22:17:55.297Z,41.92
2022-08-03T22:20:22.981Z,42.03
2022-08-03T22:22:55.942Z,41.76
2022-08-03T22:25:29.174Z,42.21
2022-08-03T22:27:59.328Z,43.01
2022-08-03T22:30:27.719Z,41.57
2022-08-03T22:32:56.542Z,41.25
2022-08-03T22:35:25.813Z,41.61
2022-08-03T22:37:55.698Z,41.87
2022-08-03T22:40:23.211Z,41.73
2022-08-03T22:42:52.187Z,41.42
2022-08-03T22:46:07.428Z,42.20
2022-08-03T22:48:08.942Z,42.39
2022-08-03T22:50:37.261Z,42.02
2022-08-03T22:53:07.038Z,42.13
2022-08-03T22:55:34.689Z,41.39
2022-08-03T22:58:02.251Z,41.68
2022-08-03T23:00:29.900Z,42.78
2022-08-03T23:03:02.384Z,42.93
2022-08-03T23:06:00.956Z,43.07
2022-08-03T23:08:24.897Z,43.27
2022-08-03T23:10:56.163Z,43.28
2022-08-03T23:13:26.997Z,44.17
2022-08-03T23:15:59.778Z,43.60
2022-08-03T23:18:34.123Z,42.93
2022-08-03T23:21:11.023Z,43.04
2022-08-03T23:23:44.322Z,42.59
2022-08-03T23:26:16.037Z,42.25
2022-08-03T23:28:46.760Z,43.13
2022-08-03T23:31:15.591Z,43.26
2022-08-03T23:33:45.185Z,43.71
2022-08-03T23:36:30.282Z,43.84
2022-08-03T23:39:02.459Z,44.00
2022-08-03T23:41:33.037Z,43.78
2022-08-03T23:44:03.870Z,44.07
2022-08-03T23:46:33.191Z,44.14
2022-08-03T23:49:00.738Z,44.21
2022-08-03T23:51:28.166Z,44.08
2022-08-03T23:54:03.534Z,44.37
2022-08-03T23:56:57.299Z,45.28
2022-08-03T23:59:42.599Z,44.69
